sensor_id;sensor_type;location;lat;lon;timestamp;pressure;altitude;pressure_sealevel;temperature;humidity
61359;BME280;47228;46.762;23.598;2023-02-01T00:01:20;97035.95;;;-0.59;75.69
61359;BME280;47228;46.762;23.598;2023-02-01T00:03:48;97037.45;;;-0.66;75.79
61359;BME280;47228;46.762;23.598;2023-02-01T00:06:16;97036.20;;;-0.71;75.96
61359;BME280;47228;46.762;23.598;2023-02-01T00:08:46;97039.04;;;-0.78;76.09
61359;BME280;47228;46.762;23.598;2023-02-01T00:11:15;97037.02;;;-0.84;76.19
61359;BME280;47228;46.762;23.598;2023-02-01T00:13:43;97036.52;;;-0.91;76.12
61359;BME280;47228;46.762;23.598;2023-02-01T00:16:22;97033.09;;;-0.95;76.41
61359;BME280;47228;46.762;23.598;2023-02-01T00:18:56;97033.27;;;-0.97;76.64
61359;BME280;47228;46.762;23.598;2023-02-01T00:21:24;97031.27;;;-1.00;76.77
61359;BME280;47228;46.762;23.598;2023-02-01T00:23:52;97027.04;;;-1.01;77.02
61359;BME280;47228;46.762;23.598;2023-02-01T00:28:58;97018.73;;;-1.01;77.20
61359;BME280;47228;46.762;23.598;2023-02-01T00:31:27;97019.84;;;-1.00;77.19
61359;BME280;47228;46.762;23.598;2023-02-01T00:33:56;97017.92;;;-1.02;77.06
61359;BME280;47228;46.762;23.598;2023-02-01T00:36:24;97018.77;;;-1.04;77.22
61359;BME280;47228;46.762;23.598;2023-02-01T00:38:53;97020.55;;;-1.07;77.34
61359;BME280;47228;46.762;23.598;2023-02-01T00:41:21;97022.94;;;-1.10;77.07
61359;BME280;47228;46.762;23.598;2023-02-01T00:43:50;97016.55;;;-1.14;77.26
61359;BME280;47228;46.762;23.598;2023-02-01T00:46:19;97016.66;;;-1.18;77.01
61359;BME280;47228;46.762;23.598;2023-02-01T00:48:47;97013.20;;;-1.20;77.30
61359;BME280;47228;46.762;23.598;2023-02-01T00:51:18;97014.72;;;-1.23;77.23
61359;BME280;47228;46.762;23.598;2023-02-01T00:53:47;97006.44;;;-1.26;77.39
61359;BME280;47228;46.762;23.598;2023-02-01T00:56:15;97001.11;;;-1.28;77.34
61359;BME280;47228;46.762;23.598;2023-02-01T00:58:43;96996.77;;;-1.31;77.38
61359;BME280;47228;46.762;23.598;2023-02-01T01:03:49;96988.81;;;-1.31;77.54
61359;BME280;47228;46.762;23.598;2023-02-01T01:06:27;96982.89;;;-1.30;77.63
61359;BME280;47228;46.762;23.598;2023-02-01T01:08:56;96979.28;;;-1.29;77.31
61359;BME280;47228;46.762;23.598;2023-02-01T01:11:28;96972.92;;;-1.30;77.26
61359;BME280;47228;46.762;23.598;2023-02-01T01:13:58;96973.13;;;-1.32;77.21
61359;BME280;47228;46.762;23.598;2023-02-01T01:16:28;96973.38;;;-1.35;77.31
61359;BME280;47228;46.762;23.598;2023-02-01T01:18:57;96972.58;;;-1.38;77.32
61359;BME280;47228;46.762;23.598;2023-02-01T01:21:25;96965.75;;;-1.43;77.19
61359;BME280;47228;46.762;23.598;2023-02-01T01:23:54;96959.86;;;-1.51;77.09
61359;BME280;47228;46.762;23.598;2023-02-01T01:26:24;96957.79;;;-1.57;77.19
61359;BME280;47228;46.762;23.598;2023-02-01T01:28:55;96957.31;;;-1.62;77.55
61359;BME280;47228;46.762;23.598;2023-02-01T01:31:24;96953.98;;;-1.65;77.72
61359;BME280;47228;46.762;23.598;2023-02-01T01:33:55;96953.95;;;-1.69;77.92
61359;BME280;47228;46.762;23.598;2023-02-01T01:36:24;96957.05;;;-1.71;77.81
61359;BME280;47228;46.762;23.598;2023-02-01T01:38:52;96958.77;;;-1.75;77.95
61359;BME280;47228;46.762;23.598;2023-02-01T01:41:23;96958.48;;;-1.77;78.13
61359;BME280;47228;46.762;23.598;2023-02-01T01:44:01;96960.70;;;-1.79;78.32
61359;BME280;47228;46.762;23.598;2023-02-01T01:51:43;96975.71;;;-1.80;78.45
61359;BME280;47228;46.762;23.598;2023-02-01T01:56:51;96981.91;;;-1.81;78.50
61359;BME280;47228;46.762;23.598;2023-02-01T01:59:22;96978.79;;;-1.84;78.48
61359;BME280;47228;46.762;23.598;2023-02-01T02:01:52;96976.52;;;-1.85;78.38
61359;BME280;47228;46.762;23.598;2023-02-01T02:04:20;96980.95;;;-1.88;78.38
61359;BME280;47228;46.762;23.598;2023-02-01T02:06:54;96982.13;;;-1.89;78.31
61359;BME280;47228;46.762;23.598;2023-02-01T02:09:23;96981.27;;;-1.90;78.51
61359;BME280;47228;46.762;23.598;2023-02-01T02:11:51;96985.53;;;-1.91;78.43
61359;BME280;47228;46.762;23.598;2023-02-01T02:14:21;96986.69;;;-1.92;78.41
61359;BME280;47228;46.762;23.598;2023-02-01T02:32:03;96976.61;;;-1.84;78.21
61359;BME280;47228;46.762;23.598;2023-02-01T02:40:53;96967.77;;;-1.64;77.56
61359;BME280;47228;46.762;23.598;2023-02-01T02:43:35;96962.65;;;-1.59;77.63
61359;BME280;47228;46.762;23.598;2023-02-01T02:49:26;96954.11;;;-1.51;77.65
61359;BME280;47228;46.762;23.598;2023-02-01T02:52:03;96950.39;;;-1.50;77.48
61359;BME280;47228;46.762;23.598;2023-02-01T02:54:52;96944.29;;;-1.50;77.34
61359;BME280;47228;46.762;23.598;2023-02-01T02:57:24;96941.72;;;-1.50;77.58
61359;BME280;47228;46.762;23.598;2023-02-01T03:00:15;96939.11;;;-1.50;77.44
61359;BME280;47228;46.762;23.598;2023-02-01T03:03:03;96943.23;;;-1.50;77.61
61359;BME280;47228;46.762;23.598;2023-02-01T03:05:50;96947.14;;;-1.49;77.51
61359;BME280;47228;46.762;23.598;2023-02-01T03:08:19;96943.18;;;-1.46;77.88
61359;BME280;47228;46.762;23.598;2023-02-01T03:10:51;96946.58;;;-1.43;77.75
61359;BME280;47228;46.762;23.598;2023-02-01T03:16:04;96939.45;;;-1.42;77.80
61359;BME280;47228;46.762;23.598;2023-02-01T03:18:52;96933.55;;;-1.43;77.68
61359;BME280;47228;46.762;23.598;2023-02-01T03:21:36;96932.81;;;-1.42;77.84
61359;BME280;47228;46.762;23.598;2023-02-01T03:24:13;96926.79;;;-1.40;78.06
61359;BME280;47228;46.762;23.598;2023-02-01T03:26:48;96918.16;;;-1.39;78.15
61359;BME280;47228;46.762;23.598;2023-02-01T03:29:27;96919.97;;;-1.40;78.19
61359;BME280;47228;46.762;23.598;2023-02-01T03:31:57;96917.76;;;-1.37;78.26
61359;BME280;47228;46.762;23.598;2023-02-01T03:34:25;96905.27;;;-1.33;78.28
61359;BME280;47228;46.762;23.598;2023-02-01T03:37:10;96903.02;;;-1.31;78.12
61359;BME280;47228;46.762;23.598;2023-02-01T03:39:58;96905.13;;;-1.31;77.76
61359;BME280;47228;46.762;23.598;2023-02-01T03:42:46;96904.03;;;-1.33;77.76
61359;BME280;47228;46.762;23.598;2023-02-01T03:47:51;96900.91;;;-1.38;77.63
61359;BME280;47228;46.762;23.598;2023-02-01T03:50:22;96899.69;;;-1.42;77.64
61359;BME280;47228;46.762;23.598;2023-02-01T03:55:29;96899.33;;;-1.46;77.95
61359;BME280;47228;46.762;23.598;2023-02-01T03:58:07;96894.98;;;-1.46;77.82
61359;BME280;47228;46.762;23.598;2023-02-01T04:00:37;96893.73;;;-1.46;78.02
61359;BME280;47228;46.762;23.598;2023-02-01T04:03:06;96894.61;;;-1.44;78.05
61359;BME280;47228;46.762;23.598;2023-02-01T04:05:34;96895.26;;;-1.44;78.08
61359;BME280;47228;46.762;23.598;2023-02-01T04:08:03;96890.98;;;-1.42;78.35
61359;BME280;47228;46.762;23.598;2023-02-01T04:10:32;96895.30;;;-1.42;78.33
61359;BME280;47228;46.762;23.598;2023-02-01T04:13:00;96895.19;;;-1.43;78.06
61359;BME280;47228;46.762;23.598;2023-02-01T04:15:28;96899.65;;;-1.44;78.24
61359;BME280;47228;46.762;23.598;2023-02-01T04:17:57;96896.83;;;-1.46;78.28
61359;BME280;47228;46.762;23.598;2023-02-01T04:20:25;96898.54;;;-1.47;78.41
61359;BME280;47228;46.762;23.598;2023-02-01T04:22:53;96899.98;;;-1.48;78.58
61359;BME280;47228;46.762;23.598;2023-02-01T04:25:21;96902.27;;;-1.48;78.55
61359;BME280;47228;46.762;23.598;2023-02-01T04:27:49;96902.41;;;-1.48;78.61
61359;BME280;47228;46.762;23.598;2023-02-01T04:30:17;96905.30;;;-1.45;78.96
61359;BME280;47228;46.762;23.598;2023-02-01T04:32:45;96913.27;;;-1.41;79.17
61359;BME280;47228;46.762;23.598;2023-02-01T04:35:13;96912.77;;;-1.35;79.06
61359;BME280;47228;46.762;23.598;2023-02-01T04:37:41;96910.23;;;-1.32;78.91
61359;BME280;47228;46.762;23.598;2023-02-01T04:40:09;96908.67;;;-1.32;78.57
61359;BME280;47228;46.762;23.598;2023-02-01T04:42:38;96907.35;;;-1.33;78.52
61359;BME280;47228;46.762;23.598;2023-02-01T04:45:06;96907.38;;;-1.35;78.47
61359;BME280;47228;46.762;23.598;2023-02-01T04:47:34;96910.95;;;-1.38;78.32
61359;BME280;47228;46.762;23.598;2023-02-01T04:50:03;96909.75;;;-1.40;78.39
61359;BME280;47228;46.762;23.598;2023-02-01T04:52:31;96913.99;;;-1.39;78.62
61359;BME280;47228;46.762;23.598;2023-02-01T04:54:59;96918.10;;;-1.36;78.88
61359;BME280;47228;46.762;23.598;2023-02-01T04:57:28;96918.92;;;-1.32;78.68
61359;BME280;47228;46.762;23.598;2023-02-01T04:59:56;96920.25;;;-1.27;78.49
61359;BME280;47228;46.762;23.598;2023-02-01T05:02:24;96917.41;;;-1.25;78.52
61359;BME280;47228;46.762;23.598;2023-02-01T05:04:52;96912.15;;;-1.22;78.80
61359;BME280;47228;46.762;23.598;2023-02-01T05:07:21;96910.90;;;-1.20;78.73
61359;BME280;47228;46.762;23.598;2023-02-01T05:09:49;96911.44;;;-1.16;78.74
61359;BME280;47228;46.762;23.598;2023-02-01T05:12:17;96907.62;;;-1.12;78.78
61359;BME280;47228;46.762;23.598;2023-02-01T05:15:04;96906.66;;;-1.10;78.68
61359;BME280;47228;46.762;23.598;2023-02-01T05:17:32;96908.55;;;-1.10;78.31
61359;BME280;47228;46.762;23.598;2023-02-01T05:20:00;96907.52;;;-1.09;78.17
61359;BME280;47228;46.762;23.598;2023-02-01T05:22:28;96916.67;;;-1.11;78.08
61359;BME280;47228;46.762;23.598;2023-02-01T05:24:56;96917.95;;;-1.15;78.08
61359;BME280;47228;46.762;23.598;2023-02-01T05:27:24;96914.98;;;-1.19;78.37
61359;BME280;47228;46.762;23.598;2023-02-01T05:29:52;96915.79;;;-1.21;78.78
61359;BME280;47228;46.762;23.598;2023-02-01T05:32:20;96919.76;;;-1.22;78.77
61359;BME280;47228;46.762;23.598;2023-02-01T05:34:49;96918.88;;;-1.27;78.61
61359;BME280;47228;46.762;23.598;2023-02-01T05:37:18;96923.29;;;-1.32;78.99
61359;BME280;47228;46.762;23.598;2023-02-01T05:39:46;96917.47;;;-1.32;79.61
61359;BME280;47228;46.762;23.598;2023-02-01T05:42:14;96917.55;;;-1.27;80.02
61359;BME280;47228;46.762;23.598;2023-02-01T05:44:42;96921.36;;;-1.22;80.18
61359;BME280;47228;46.762;23.598;2023-02-01T05:47:10;96913.95;;;-1.19;80.44
61359;BME280;47228;46.762;23.598;2023-02-01T05:49:38;96904.13;;;-1.19;80.11
61359;BME280;47228;46.762;23.598;2023-02-01T05:52:06;96906.78;;;-1.17;80.12
61359;BME280;47228;46.762;23.598;2023-02-01T05:54:34;96910.73;;;-1.14;80.16
61359;BME280;47228;46.762;23.598;2023-02-01T05:57:02;96914.92;;;-1.12;80.19
61359;BME280;47228;46.762;23.598;2023-02-01T05:59:30;96916.63;;;-1.10;80.47
61359;BME280;47228;46.762;23.598;2023-02-01T06:01:58;96915.41;;;-1.07;80.67
61359;BME280;47228;46.762;23.598;2023-02-01T06:04:26;96910.02;;;-1.05;80.60
61359;BME280;47228;46.762;23.598;2023-02-01T06:06:54;96910.69;;;-1.04;80.37
61359;BME280;47228;46.762;23.598;2023-02-01T06:09:22;96909.96;;;-1.04;80.27
61359;BME280;47228;46.762;23.598;2023-02-01T06:11:50;96904.41;;;-1.02;80.46
61359;BME280;47228;46.762;23.598;2023-02-01T06:14:18;96904.98;;;-1.01;80.28
61359;BME280;47228;46.762;23.598;2023-02-01T06:16:46;96911.15;;;-1.03;80.04
61359;BME280;47228;46.762;23.598;2023-02-01T06:19:14;96916.65;;;-1.07;80.35
61359;BME280;47228;46.762;23.598;2023-02-01T06:21:42;96914.30;;;-1.08;80.73
61359;BME280;47228;46.762;23.598;2023-02-01T06:24:10;96919.50;;;-1.09;80.78
61359;BME280;47228;46.762;23.598;2023-02-01T06:26:38;96932.40;;;-1.14;80.58
61359;BME280;47228;46.762;23.598;2023-02-01T06:29:09;96939.77;;;-1.21;80.55
61359;BME280;47228;46.762;23.598;2023-02-01T06:31:37;96942.23;;;-1.23;80.97
61359;BME280;47228;46.762;23.598;2023-02-01T06:34:06;96942.58;;;-1.21;81.24
61359;BME280;47228;46.762;23.598;2023-02-01T06:36:34;96932.31;;;-1.21;81.33
61359;BME280;47228;46.762;23.598;2023-02-01T06:39:02;96932.97;;;-1.18;81.70
61359;BME280;47228;46.762;23.598;2023-02-01T06:41:30;96940.77;;;-1.18;81.60
61359;BME280;47228;46.762;23.598;2023-02-01T06:43:58;96954.33;;;-1.20;81.55
61359;BME280;47228;46.762;23.598;2023-02-01T06:46:26;96955.57;;;-1.22;81.55
61359;BME280;47228;46.762;23.598;2023-02-01T06:48:54;96955.02;;;-1.22;81.76
61359;BME280;47228;46.762;23.598;2023-02-01T06:51:26;96960.77;;;-1.24;81.46
61359;BME280;47228;46.762;23.598;2023-02-01T06:53:56;96955.46;;;-1.31;81.29
61359;BME280;47228;46.762;23.598;2023-02-01T06:56:24;96949.12;;;-1.34;81.62
61359;BME280;47228;46.762;23.598;2023-02-01T06:58:53;96955.06;;;-1.34;81.65
61359;BME280;47228;46.762;23.598;2023-02-01T07:01:21;96960.17;;;-1.33;81.73
61359;BME280;47228;46.762;23.598;2023-02-01T07:03:49;96955.49;;;-1.33;81.70
61359;BME280;47228;46.762;23.598;2023-02-01T07:06:19;96960.89;;;-1.33;81.48
61359;BME280;47228;46.762;23.598;2023-02-01T07:08:47;96961.20;;;-1.33;81.41
61359;BME280;47228;46.762;23.598;2023-02-01T07:11:19;96955.06;;;-1.32;81.39
61359;BME280;47228;46.762;23.598;2023-02-01T07:13:47;96955.41;;;-1.30;81.26
61359;BME280;47228;46.762;23.598;2023-02-01T07:16:18;96958.98;;;-1.29;81.21
61359;BME280;47228;46.762;23.598;2023-02-01T07:18:46;96960.48;;;-1.28;81.37
61359;BME280;47228;46.762;23.598;2023-02-01T07:21:15;96958.92;;;-1.31;81.20
61359;BME280;47228;46.762;23.598;2023-02-01T07:23:43;96949.92;;;-1.33;81.28
61359;BME280;47228;46.762;23.598;2023-02-01T07:26:12;96948.91;;;-1.32;81.52
61359;BME280;47228;46.762;23.598;2023-02-01T07:28:41;96956.11;;;-1.30;81.51
61359;BME280;47228;46.762;23.598;2023-02-01T07:31:16;96959.27;;;-1.31;81.45
61359;BME280;47228;46.762;23.598;2023-02-01T07:33:49;96956.81;;;-1.30;81.55
61359;BME280;47228;46.762;23.598;2023-02-01T07:36:20;96950.83;;;-1.27;81.76
61359;BME280;47228;46.762;23.598;2023-02-01T07:38:48;96958.03;;;-1.25;81.67
61359;BME280;47228;46.762;23.598;2023-02-01T07:41:17;96956.83;;;-1.23;81.65
61359;BME280;47228;46.762;23.598;2023-02-01T07:43:45;96961.77;;;-1.22;81.58
61359;BME280;47228;46.762;23.598;2023-02-01T07:46:13;96956.08;;;-1.22;81.67
61359;BME280;47228;46.762;23.598;2023-02-01T07:48:43;96960.23;;;-1.24;81.50
61359;BME280;47228;46.762;23.598;2023-02-01T07:51:15;96960.34;;;-1.25;81.68
61359;BME280;47228;46.762;23.598;2023-02-01T07:53:44;96958.23;;;-1.23;81.73
61359;BME280;47228;46.762;23.598;2023-02-01T07:56:15;96960.42;;;-1.20;81.80
61359;BME280;47228;46.762;23.598;2023-02-01T07:58:50;96964.68;;;-1.17;82.01
61359;BME280;47228;46.762;23.598;2023-02-01T08:01:23;96962.45;;;-1.13;82.09
61359;BME280;47228;46.762;23.598;2023-02-01T08:03:59;96961.55;;;-1.09;82.23
61359;BME280;47228;46.762;23.598;2023-02-01T08:06:31;96961.70;;;-1.05;82.44
61359;BME280;47228;46.762;23.598;2023-02-01T08:09:00;96960.30;;;-1.01;82.17
61359;BME280;47228;46.762;23.598;2023-02-01T08:11:28;96964.63;;;-0.97;82.15
61359;BME280;47228;46.762;23.598;2023-02-01T08:13:57;96962.48;;;-0.95;82.17
61359;BME280;47228;46.762;23.598;2023-02-01T08:16:26;96961.83;;;-0.92;82.18
61359;BME280;47228;46.762;23.598;2023-02-01T08:18:54;96962.05;;;-0.88;82.63
61359;BME280;47228;46.762;23.598;2023-02-01T08:21:26;96962.52;;;-0.83;82.92
61359;BME280;47228;46.762;23.598;2023-02-01T08:24:05;96965.77;;;-0.77;82.90
61359;BME280;47228;46.762;23.598;2023-02-01T08:26:33;96962.37;;;-0.70;83.03
61359;BME280;47228;46.762;23.598;2023-02-01T08:29:04;96962.43;;;-0.63;83.28
61359;BME280;47228;46.762;23.598;2023-02-01T08:31:32;96964.14;;;-0.55;83.47
61359;BME280;47228;46.762;23.598;2023-02-01T08:34:02;96966.29;;;-0.50;83.50
61359;BME280;47228;46.762;23.598;2023-02-01T08:36:32;96970.55;;;-0.45;83.72
61359;BME280;47228;46.762;23.598;2023-02-01T08:39:01;96973.81;;;-0.41;83.84
61359;BME280;47228;46.762;23.598;2023-02-01T08:41:29;96977.94;;;-0.35;84.27
61359;BME280;47228;46.762;23.598;2023-02-01T08:43:58;96982.33;;;-0.28;84.61
61359;BME280;47228;46.762;23.598;2023-02-01T08:46:26;96985.06;;;-0.21;84.71
61359;BME280;47228;46.762;23.598;2023-02-01T08:48:54;96990.70;;;-0.19;84.48
61359;BME280;47228;46.762;23.598;2023-02-01T08:51:23;96993.59;;;-0.14;84.75
61359;BME280;47228;46.762;23.598;2023-02-01T08:53:51;96992.17;;;-0.08;84.75
61359;BME280;47228;46.762;23.598;2023-02-01T08:56:19;96995.08;;;-0.04;84.71
61359;BME280;47228;46.762;23.598;2023-02-01T08:58:47;96998.55;;;-0.02;84.69
61359;BME280;47228;46.762;23.598;2023-02-01T09:01:16;96996.52;;;0.03;85.11
61359;BME280;47228;46.762;23.598;2023-02-01T09:03:45;96991.84;;;0.09;85.23
61359;BME280;47228;46.762;23.598;2023-02-01T09:06:15;96989.06;;;0.14;85.30
61359;BME280;47228;46.762;23.598;2023-02-01T09:08:43;96986.23;;;0.20;85.26
61359;BME280;47228;46.762;23.598;2023-02-01T09:11:17;96985.95;;;0.27;85.35
61359;BME280;47228;46.762;23.598;2023-02-01T09:13:47;96988.70;;;0.35;85.63
61359;BME280;47228;46.762;23.598;2023-02-01T09:16:16;96992.27;;;0.43;85.44
61359;BME280;47228;46.762;23.598;2023-02-01T09:18:44;96989.63;;;0.49;85.55
61359;BME280;47228;46.762;23.598;2023-02-01T09:21:28;96985.70;;;0.55;85.54
61359;BME280;47228;46.762;23.598;2023-02-01T09:23:57;96983.98;;;0.59;85.18
61359;BME280;47228;46.762;23.598;2023-02-01T09:26:25;96982.44;;;0.60;85.29
61359;BME280;47228;46.762;23.598;2023-02-01T09:28:59;96978.34;;;0.63;85.42
61359;BME280;47228;46.762;23.598;2023-02-01T09:31:27;96980.29;;;0.64;85.37
61359;BME280;47228;46.762;23.598;2023-02-01T09:33:56;96980.20;;;0.65;85.57
61359;BME280;47228;46.762;23.598;2023-02-01T09:36:24;96978.21;;;0.66;85.50
61359;BME280;47228;46.762;23.598;2023-02-01T09:38:52;96976.66;;;0.68;85.70
61359;BME280;47228;46.762;23.598;2023-02-01T09:47:14;96968.91;;;0.76;86.18
61359;BME280;47228;46.762;23.598;2023-02-01T09:52:25;96964.64;;;0.88;86.30
61359;BME280;47228;46.762;23.598;2023-02-01T09:55:00;96964.67;;;0.96;86.25
61359;BME280;47228;46.762;23.598;2023-02-01T09:58:01;96963.70;;;1.06;86.23
61359;BME280;47228;46.762;23.598;2023-02-01T10:00:35;96965.08;;;1.16;86.21
61359;BME280;47228;46.762;23.598;2023-02-01T10:03:04;96964.19;;;1.25;86.21
61359;BME280;47228;46.762;23.598;2023-02-01T10:06:13;96965.95;;;1.35;86.08
61359;BME280;47228;46.762;23.598;2023-02-01T10:09:02;96972.32;;;1.45;85.71
61359;BME280;47228;46.762;23.598;2023-02-01T10:23:30;96993.14;;;1.58;84.99
61359;BME280;47228;46.762;23.598;2023-02-01T10:28:33;96990.88;;;1.53;84.98
61359;BME280;47228;46.762;23.598;2023-02-01T10:31:02;96994.78;;;1.52;84.95
61359;BME280;47228;46.762;23.598;2023-02-01T10:33:58;96989.10;;;1.50;84.99
61359;BME280;47228;46.762;23.598;2023-02-01T10:36:40;96990.81;;;1.50;85.27
61359;BME280;47228;46.762;23.598;2023-02-01T10:39:11;96983.98;;;1.52;85.41
61359;BME280;47228;46.762;23.598;2023-02-01T10:41:42;96977.08;;;1.53;85.12
61359;BME280;47228;46.762;23.598;2023-02-01T10:44:23;96974.59;;;1.53;85.07
61359;BME280;47228;46.762;23.598;2023-02-01T10:46:55;96976.30;;;1.59;85.31
61359;BME280;47228;46.762;23.598;2023-02-01T10:52:16;96978.76;;;1.68;84.47
61359;BME280;47228;46.762;23.598;2023-02-01T10:54:45;96975.33;;;1.69;84.30
61359;BME280;47228;46.762;23.598;2023-02-01T10:57:24;96970.65;;;1.70;84.28
61359;BME280;47228;46.762;23.598;2023-02-01T10:59:53;96968.13;;;1.71;83.83
61359;BME280;47228;46.762;23.598;2023-02-01T11:02:29;96964.96;;;1.73;83.97
61359;BME280;47228;46.762;23.598;2023-02-01T11:05:07;96966.55;;;1.76;84.04
61359;BME280;47228;46.762;23.598;2023-02-01T11:07:46;96963.48;;;1.77;83.96
61359;BME280;47228;46.762;23.598;2023-02-01T11:10:42;96964.52;;;1.82;84.28
61359;BME280;47228;46.762;23.598;2023-02-01T11:13:16;96965.08;;;1.90;84.09
61359;BME280;47228;46.762;23.598;2023-02-01T11:15:46;96963.30;;;1.94;82.90
61359;BME280;47228;46.762;23.598;2023-02-01T11:18:29;96960.60;;;1.93;82.20
61359;BME280;47228;46.762;23.598;2023-02-01T11:20:58;96964.55;;;1.91;81.85
61359;BME280;47228;46.762;23.598;2023-02-01T11:23:28;96964.41;;;1.89;81.99
61359;BME280;47228;46.762;23.598;2023-02-01T11:26:23;96960.28;;;1.88;82.05
61359;BME280;47228;46.762;23.598;2023-02-01T11:29:05;96957.77;;;1.84;81.65
61359;BME280;47228;46.762;23.598;2023-02-01T11:31:37;96960.79;;;1.81;81.68
61359;BME280;47228;46.762;23.598;2023-02-01T11:34:14;96954.50;;;1.83;81.77
61359;BME280;47228;46.762;23.598;2023-02-01T11:36:50;96951.92;;;1.85;81.60
61359;BME280;47228;46.762;23.598;2023-02-01T11:39:33;96955.45;;;1.86;80.81
61359;BME280;47228;46.762;23.598;2023-02-01T11:42:20;96961.06;;;1.84;80.50
61359;BME280;47228;46.762;23.598;2023-02-01T11:44:48;96966.27;;;1.83;80.34
61359;BME280;47228;46.762;23.598;2023-02-01T11:47:28;96967.73;;;1.82;80.16
61359;BME280;47228;46.762;23.598;2023-02-01T11:49:59;96963.91;;;1.84;80.27
61359;BME280;47228;46.762;23.598;2023-02-01T11:52:37;96958.17;;;1.85;79.45
61359;BME280;47228;46.762;23.598;2023-02-01T11:58:29;96941.76;;;1.88;78.20
61359;BME280;47228;46.762;23.598;2023-02-01T12:06:54;96944.42;;;1.93;77.73
61359;BME280;47228;46.762;23.598;2023-02-01T12:12:29;96940.08;;;2.05;77.88
61359;BME280;47228;46.762;23.598;2023-02-01T12:15:05;96932.52;;;2.10;77.75
61359;BME280;47228;46.762;23.598;2023-02-01T12:20:39;96922.44;;;2.20;77.17
61359;BME280;47228;46.762;23.598;2023-02-01T12:26:19;96918.06;;;2.29;77.06
61359;BME280;47228;46.762;23.598;2023-02-01T12:29:01;96920.12;;;2.31;76.22
61359;BME280;47228;46.762;23.598;2023-02-01T12:31:43;96920.18;;;2.30;76.17
61359;BME280;47228;46.762;23.598;2023-02-01T12:37:24;96919.50;;;2.35;76.96
61359;BME280;47228;46.762;23.598;2023-02-01T12:45:34;96913.70;;;2.38;77.47
61359;BME280;47228;46.762;23.598;2023-02-01T12:48:29;96916.30;;;2.41;77.74
61359;BME280;47228;46.762;23.598;2023-02-01T12:51:05;96914.23;;;2.40;77.54
61359;BME280;47228;46.762;23.598;2023-02-01T12:54:02;96913.23;;;2.37;77.62
61359;BME280;47228;46.762;23.598;2023-02-01T12:56:42;96916.54;;;2.37;77.82
61359;BME280;47228;46.762;23.598;2023-02-01T13:02:22;96910.86;;;2.36;78.06
61359;BME280;47228;46.762;23.598;2023-02-01T13:05:01;96916.95;;;2.38;77.79
61359;BME280;47228;46.762;23.598;2023-02-01T13:07:38;96915.84;;;2.35;77.48
61359;BME280;47228;46.762;23.598;2023-02-01T13:12:59;96906.52;;;2.30;77.88
61359;BME280;47228;46.762;23.598;2023-02-01T13:15:33;96912.00;;;2.33;78.22
61359;BME280;47228;46.762;23.598;2023-02-01T13:18:05;96907.54;;;2.34;77.92
61359;BME280;47228;46.762;23.598;2023-02-01T13:20:47;96904.47;;;2.31;77.93
61359;BME280;47228;46.762;23.598;2023-02-01T13:23:30;96902.21;;;2.32;77.66
61359;BME280;47228;46.762;23.598;2023-02-01T13:25:59;96905.39;;;2.35;77.92
61359;BME280;47228;46.762;23.598;2023-02-01T13:28:40;96904.24;;;2.40;78.13
61359;BME280;47228;46.762;23.598;2023-02-01T13:34:38;96904.31;;;2.50;77.87
61359;BME280;47228;46.762;23.598;2023-02-01T13:40:26;96900.09;;;2.58;77.50
61359;BME280;47228;46.762;23.598;2023-02-01T13:43:17;96892.63;;;2.62;77.66
61359;BME280;47228;46.762;23.598;2023-02-01T13:45:50;96886.69;;;2.63;77.46
61359;BME280;47228;46.762;23.598;2023-02-01T13:51:14;96870.88;;;2.67;77.29
61359;BME280;47228;46.762;23.598;2023-02-01T13:53:47;96870.70;;;2.69;77.31
61359;BME280;47228;46.762;23.598;2023-02-01T13:56:18;96871.09;;;2.67;76.61
61359;BME280;47228;46.762;23.598;2023-02-01T13:58:47;96869.59;;;2.64;76.57
61359;BME280;47228;46.762;23.598;2023-02-01T14:03:58;96864.38;;;2.63;76.86
61359;BME280;47228;46.762;23.598;2023-02-01T14:19:37;96863.51;;;2.61;77.19
61359;BME280;47228;46.762;23.598;2023-02-01T14:24:50;96860.70;;;2.59;77.16
61359;BME280;47228;46.762;23.598;2023-02-01T14:27:23;96857.59;;;2.57;76.80
61359;BME280;47228;46.762;23.598;2023-02-01T14:30:05;96859.02;;;2.55;77.15
61359;BME280;47228;46.762;23.598;2023-02-01T14:32:39;96854.90;;;2.51;77.00
61359;BME280;47228;46.762;23.598;2023-02-01T14:35:21;96859.55;;;2.47;76.90
61359;BME280;47228;46.762;23.598;2023-02-01T14:37:59;96861.25;;;2.42;76.97
61359;BME280;47228;46.762;23.598;2023-02-01T14:40:30;96863.11;;;2.39;77.08
61359;BME280;47228;46.762;23.598;2023-02-01T14:42:58;96863.71;;;2.39;77.31
61359;BME280;47228;46.762;23.598;2023-02-01T14:50:34;96864.14;;;2.37;77.36
61359;BME280;47228;46.762;23.598;2023-02-01T15:01:23;96861.15;;;2.27;77.33
61359;BME280;47228;46.762;23.598;2023-02-01T15:06:38;96871.88;;;2.14;77.20
61359;BME280;47228;46.762;23.598;2023-02-01T15:09:19;96869.31;;;2.08;77.46
61359;BME280;47228;46.762;23.598;2023-02-01T15:15:28;96861.08;;;2.02;77.88
61359;BME280;47228;46.762;23.598;2023-02-01T15:17:31;96864.07;;;2.03;77.92
61359;BME280;47228;46.762;23.598;2023-02-01T15:20:25;96865.48;;;2.05;78.10
61359;BME280;47228;46.762;23.598;2023-02-01T15:23:18;96863.98;;;2.06;78.27
61359;BME280;47228;46.762;23.598;2023-02-01T15:25:46;96862.30;;;2.05;78.09
61359;BME280;47228;46.762;23.598;2023-02-01T15:28:16;96860.52;;;2.04;77.95
61359;BME280;47228;46.762;23.598;2023-02-01T15:30:56;96859.65;;;2.02;77.89
61359;BME280;47228;46.762;23.598;2023-02-01T15:33:25;96854.92;;;1.99;78.10
61359;BME280;47228;46.762;23.598;2023-02-01T15:38:38;96854.06;;;1.94;78.05
61359;BME280;47228;46.762;23.598;2023-02-01T15:41:11;96853.52;;;1.92;78.30
61359;BME280;47228;46.762;23.598;2023-02-01T15:44:02;96857.48;;;1.91;78.42
61359;BME280;47228;46.762;23.598;2023-02-01T15:48:59;96855.73;;;1.91;78.21
61359;BME280;47228;46.762;23.598;2023-02-01T15:51:29;96857.85;;;1.92;78.60
61359;BME280;47228;46.762;23.598;2023-02-01T15:54:06;96856.06;;;1.93;78.55
61359;BME280;47228;46.762;23.598;2023-02-01T15:56:40;96859.90;;;1.91;78.46